Time;durP1;ratioP1;P1;durP2;ratioP2;P2;SDS_P1;SDS_P2;PMS_P1;PMS_P2;Temp;Humidity;BMP_temperature;BMP_pressure;BME280_temperature;BME280_humidity;BME280_pressure;Samples;Min_cycle;Max_cycle;Signal;HPM_P1;HPM_P2
2021/03/06 00:00:24;;;;;;;15.00;10.55;;;0.40;96.10;;;;;;2080115;28;20120;-74
2021/03/06 00:01:24;;;;;;;17.27;11.00;;;0.40;96.00;;;;;;2079848;28;20239;-74
2021/03/06 00:02:25;;;;;;;20.10;11.77;;;0.40;96.00;;;;;;2079908;28;20056;-74
2021/03/06 00:03:26;;;;;;;20.25;12.00;;;0.40;96.40;;;;;;2080906;28;20029;-73
2021/03/06 00:04:27;;;;;;;18.10;11.50;;;0.40;96.40;;;;;;2079946;28;20021;-74
2021/03/06 00:05:28;;;;;;;20.35;11.10;;;0.40;96.30;;;;;;2080309;28;20036;-74
2021/03/06 00:06:28;;;;;;;14.90;10.38;;;0.40;96.20;;;;;;2080631;28;20108;-74
2021/03/06 00:07:29;;;;;;;22.77;11.55;;;0.40;96.20;;;;;;2080679;28;20029;-74
2021/03/06 00:08:30;;;;;;;17.67;11.07;;;0.40;96.10;;;;;;2080635;28;20029;-74
2021/03/06 00:09:30;;;;;;;22.67;12.70;;;0.40;96.20;;;;;;2080995;28;20020;-74
2021/03/06 00:10:31;;;;;;;20.98;12.35;;;0.30;96.20;;;;;;2080740;28;20114;-74
2021/03/06 00:11:32;;;;;;;18.98;11.90;;;0.30;96.30;;;;;;2080822;28;20469;-74
2021/03/06 00:12:32;;;;;;;22.27;12.57;;;0.30;96.30;;;;;;2080734;28;20100;-74
2021/03/06 00:13:41;;;;;;;20.25;12.43;;;0.30;96.30;;;;;;2080764;28;20033;-74
2021/03/06 00:14:52;;;;;;;26.10;13.02;;;0.40;96.40;;;;;;2080669;28;20033;-74
2021/03/06 00:16:05;;;;;;;25.85;14.13;;;0.30;96.70;;;;;;2080723;28;20025;-74
2021/03/06 00:17:13;;;;;;;26.25;12.82;;;0.30;96.60;;;;;;2080358;28;20049;-74
2021/03/06 00:18:24;;;;;;;21.83;12.77;;;0.30;96.60;;;;;;2080741;28;20018;-74
2021/03/06 00:19:43;;;;;;;28.58;14.48;;;0.20;96.60;;;;;;2080653;28;20100;-73
2021/03/06 00:21:00;;;;;;;25.70;13.93;;;0.20;96.80;;;;;;2080485;28;20032;-74
2021/03/06 00:22:06;;;;;;;29.60;15.80;;;0.20;96.70;;;;;;2080819;28;20018;-74
2021/03/06 00:23:07;;;;;;;30.73;16.75;;;0.20;96.70;;;;;;2079594;28;20033;-75
2021/03/06 00:24:14;;;;;;;29.55;16.08;;;0.20;96.90;;;;;;2079484;28;20087;-74
2021/03/06 00:25:24;;;;;;;31.80;16.58;;;0.20;97.10;;;;;;2080611;28;20028;-74
2021/03/06 00:26:29;;;;;;;31.42;18.52;;;0.20;96.90;;;;;;2079841;28;20101;-74
2021/03/06 00:27:37;;;;;;;32.55;17.63;;;0.10;96.80;;;;;;2079795;28;20036;-74
2021/03/06 00:28:41;;;;;;;33.92;17.70;;;0.20;96.90;;;;;;2080267;28;20026;-73
2021/03/06 00:29:59;;;;;;;35.53;18.92;;;0.10;96.60;;;;;;2080461;28;20030;-74
2021/03/06 00:31:03;;;;;;;41.35;21.90;;;0.10;97.10;;;;;;2080328;28;20036;-74
2021/03/06 00:32:04;;;;;;;37.60;19.40;;;0.10;97.30;;;;;;2080317;28;20021;-73
2021/03/06 00:33:08;;;;;;;37.38;18.98;;;0.10;97.30;;;;;;2080542;28;20032;-75
2021/03/06 00:34:12;;;;;;;33.92;18.58;;;0.10;97.10;;;;;;2080333;28;20037;-73
2021/03/06 00:35:21;;;;;;;41.97;19.30;;;0.10;97.10;;;;;;2079799;28;20733;-74
2021/03/06 00:36:30;;;;;;;37.15;19.73;;;0.10;97.00;;;;;;2079916;28;20088;-74
2021/03/06 00:37:31;;;;;;;31.50;18.20;;;0.10;97.00;;;;;;2080119;28;20067;-73
2021/03/06 00:38:46;;;;;;;36.03;20.00;;;0.10;97.00;;;;;;2079625;28;20021;-73
2021/03/06 00:39:50;;;;;;;33.88;19.13;;;0.10;97.10;;;;;;2080251;28;20224;-74
2021/03/06 00:40:51;;;;;;;34.95;19.30;;;0.10;97.00;;;;;;2080571;28;20026;-73
2021/03/06 00:41:58;;;;;;;41.53;21.08;;;0.10;96.90;;;;;;2080314;28;20362;-74
2021/03/06 00:43:02;;;;;;;35.50;18.42;;;0.10;97.00;;;;;;2080421;28;20377;-73
2021/03/06 00:44:06;;;;;;;33.47;19.45;;;0.10;97.10;;;;;;2080338;28;20070;-74
2021/03/06 00:45:22;;;;;;;35.50;19.42;;;0.10;97.20;;;;;;2080057;28;20067;-74
2021/03/06 00:46:31;;;;;;;33.85;19.83;;;0.10;97.30;;;;;;2080111;28;20022;-73
2021/03/06 00:47:50;;;;;;;38.03;21.38;;;0.00;97.30;;;;;;2079893;28;20036;-74
2021/03/06 00:49:03;;;;;;;33.65;19.50;;;0.00;97.30;;;;;;2080350;28;20444;-74
2021/03/06 00:50:18;;;;;;;36.15;19.73;;;0.00;97.40;;;;;;2079849;28;20117;-73
2021/03/06 00:51:33;;;;;;;33.72;18.60;;;0.00;97.50;;;;;;2079264;28;20612;-74
2021/03/06 00:52:34;;;;;;;33.90;18.98;;;0.00;97.50;;;;;;2079791;28;20032;-74
2021/03/06 00:53:41;;;;;;;35.95;18.85;;;0.00;97.20;;;;;;2079726;28;20038;-73
2021/03/06 00:54:47;;;;;;;34.88;19.73;;;0.00;97.40;;;;;;2079309;28;20041;-73
2021/03/06 00:55:50;;;;;;;32.67;18.48;;;0.00;97.50;;;;;;2080002;28;20515;-74
2021/03/06 00:56:51;;;;;;;31.85;17.77;;;-0.10;97.30;;;;;;2079845;28;20124;-73
2021/03/06 00:58:00;;;;;;;32.53;18.27;;;-0.10;97.30;;;;;;2080302;28;20020;-74
2021/03/06 00:59:34;;;;;;;27.25;16.75;;;0.00;97.50;;;;;;2080351;28;20022;-72
2021/03/06 01:00:44;;;;;;;29.10;16.08;;;-0.10;97.80;;;;;;2080497;28;20083;-74
2021/03/06 01:01:48;;;;;;;25.65;15.23;;;-0.10;97.90;;;;;;2080593;28;20021;-74
2021/03/06 01:02:55;;;;;;;28.08;15.68;;;-0.20;97.70;;;;;;2080303;28;20022;-74
2021/03/06 01:04:00;;;;;;;26.98;16.20;;;-0.10;97.70;;;;;;2080234;28;20023;-73
2021/03/06 01:05:01;;;;;;;29.10;15.40;;;-0.10;97.70;;;;;;2080397;28;20075;-73
2021/03/06 01:06:10;;;;;;;25.65;15.55;;;-0.10;97.60;;;;;;2079622;28;20029;-74
2021/03/06 01:07:16;;;;;;;24.30;15.57;;;-0.10;97.70;;;;;;2079415;28;20625;-74
2021/03/06 01:08:17;;;;;;;25.58;14.48;;;-0.10;97.70;;;;;;2080247;28;20029;-74
2021/03/06 01:09:21;;;;;;;29.02;16.50;;;-0.10;97.60;;;;;;2079386;28;20037;-73
2021/03/06 01:10:27;;;;;;;24.90;16.20;;;-0.10;97.70;;;;;;2079904;28;20025;-74
2021/03/06 01:11:42;;;;;;;22.80;14.55;;;-0.20;97.70;;;;;;2079748;28;20030;-74
2021/03/06 01:12:42;;;;;;;25.80;15.70;;;-0.10;97.70;;;;;;2078916;28;20033;-73
2021/03/06 01:13:43;;;;;;;25.20;16.13;;;-0.20;97.80;;;;;;2079417;28;20461;-73
2021/03/06 01:15:11;;;;;;;26.90;14.93;;;-0.20;98.40;;;;;;2078810;28;20448;-74
2021/03/06 01:16:20;;;;;;;20.38;12.82;;;-0.20;99.40;;;;;;2079897;28;20096;-73
2021/03/06 01:17:23;;;;;;;20.55;12.93;;;-0.20;98.70;;;;;;2079667;28;20026;-73
2021/03/06 01:18:43;;;;;;;19.92;12.55;;;-0.20;98.50;;;;;;2079582;28;20018;-73
2021/03/06 01:19:47;;;;;;;21.30;12.70;;;-0.20;98.40;;;;;;2080364;28;20358;-73
2021/03/06 01:20:48;;;;;;;19.73;12.43;;;-0.20;98.60;;;;;;2079676;28;20037;-74
2021/03/06 01:21:57;;;;;;;23.98;13.57;;;-0.20;98.70;;;;;;2079855;28;20072;-74
2021/03/06 01:22:58;;;;;;;20.23;12.27;;;-0.20;98.40;;;;;;2080248;28;20427;-74
2021/03/06 01:24:09;;;;;;;18.33;13.10;;;-0.20;98.80;;;;;;2079561;28;20017;-74
2021/03/06 01:25:13;;;;;;;;;;;-0.20;98.80;;;;;;2080181;28;20397;-74
2021/03/06 01:26:16;;;;;;;19.98;12.88;;;-0.40;99.90;;;;;;2078596;28;20031;-74
2021/03/06 01:27:25;;;;;;;21.00;12.27;;;-0.30;98.90;;;;;;2078584;28;20068;-74
2021/03/06 01:28:32;;;;;;;19.30;11.93;;;-0.40;99.10;;;;;;2080031;28;20121;-74
2021/03/06 01:29:43;;;;;;;19.17;12.00;;;-0.30;99.60;;;;;;2080207;28;20021;-74
2021/03/06 01:30:59;;;;;;;21.48;11.95;;;-0.30;99.70;;;;;;2080364;28;20025;-74
2021/03/06 01:32:03;;;;;;;18.50;12.30;;;-0.30;99.70;;;;;;2080047;28;20025;-74
2021/03/06 01:33:17;;;;;;;18.00;12.50;;;-0.40;99.70;;;;;;2079474;28;20410;-74
2021/03/06 01:34:38;;;;;;;20.08;12.63;;;-0.30;99.90;;;;;;2079761;28;20370;-73
2021/03/06 01:35:49;;;;;;;19.95;12.40;;;-0.40;99.40;;;;;;2080282;28;20025;-73
2021/03/06 01:36:57;;;;;;;18.00;12.10;;;-0.40;99.40;;;;;;2079695;28;20026;-73
2021/03/06 01:38:20;;;;;;;17.45;12.02;;;-0.40;99.50;;;;;;2079013;28;20419;-74
2021/03/06 01:39:26;;;;;;;16.95;11.80;;;-0.40;99.60;;;;;;2079954;28;20025;-74
2021/03/06 01:40:33;;;;;;;16.77;11.25;;;-0.40;99.70;;;;;;2079755;28;20539;-74
2021/03/06 01:41:34;;;;;;;17.85;12.15;;;-0.40;99.80;;;;;;2080189;28;20014;-74
2021/03/06 01:42:40;;;;;;;17.55;11.93;;;-0.40;99.90;;;;;;2080192;28;20021;-74
2021/03/06 01:43:55;;;;;;;17.85;11.52;;;-0.40;99.90;;;;;;2079484;28;20079;-73
2021/03/06 01:45:16;;;;;;;16.48;10.95;;;-0.40;99.90;;;;;;2079853;28;20022;-74
2021/03/06 01:46:29;;;;;;;19.33;12.07;;;-0.40;99.90;;;;;;2080165;28;20416;-73
2021/03/06 01:47:33;;;;;;;19.83;11.85;;;-0.40;99.90;;;;;;2080029;28;20464;-74
2021/03/06 01:48:39;;;;;;;16.20;11.75;;;-0.40;99.50;;;;;;2079147;28;20504;-74
2021/03/06 01:49:46;;;;;;;16.95;11.40;;;-0.40;99.70;;;;;;2079780;28;20049;-74
2021/03/06 01:51:10;;;;;;;16.63;10.57;;;-0.40;99.90;;;;;;2080025;28;20026;-73
2021/03/06 01:52:16;;;;;;;16.52;11.10;;;-0.40;99.90;;;;;;2080302;28;20420;-73
2021/03/06 01:53:20;;;;;;;16.85;10.25;;;-0.40;99.70;;;;;;2080058;28;20037;-74
2021/03/06 01:54:30;;;;;;;15.70;11.63;;;-0.40;99.50;;;;;;2080120;28;20021;-73
2021/03/06 01:55:38;;;;;;;16.65;10.95;;;-0.40;99.30;;;;;;2080250;28;20026;-73
2021/03/06 01:56:46;;;;;;;18.38;11.70;;;-0.40;99.20;;;;;;2080059;28;20491;-74
2021/03/06 01:57:56;;;;;;;18.08;11.20;;;-0.40;99.40;;;;;;2080284;28;20680;-74
2021/03/06 01:59:08;;;;;;;17.33;11.57;;;-0.40;99.20;;;;;;2079546;28;20017;-74
2021/03/06 02:00:33;;;;;;;15.77;10.85;;;-0.50;99.50;;;;;;2079889;28;20615;-74
2021/03/06 02:01:53;;;;;;;17.10;10.70;;;-0.50;99.70;;;;;;2080107;28;20024;-74
2021/03/06 02:03:09;;;;;;;16.65;11.18;;;-0.50;99.40;;;;;;2079024;28;20025;-73
2021/03/06 02:04:16;;;;;;;14.73;10.60;;;-0.50;99.90;;;;;;2078968;28;20025;-73
2021/03/06 02:05:35;;;;;;;17.95;11.13;;;-0.50;99.20;;;;;;2079901;28;20476;-73
2021/03/06 02:06:39;;;;;;;15.00;10.55;;;-0.50;99.70;;;;;;2080060;28;20021;-73
2021/03/06 02:07:47;;;;;;;16.17;10.70;;;-0.50;99.20;;;;;;2079629;28;20432;-74
2021/03/06 02:08:56;;;;;;;14.40;11.52;;;-0.50;99.20;;;;;;2079759;28;20503;-73
2021/03/06 02:10:09;;;;;;;14.95;11.18;;;-0.50;99.50;;;;;;2080116;28;20452;-73
2021/03/06 02:11:21;;;;;;;14.95;10.07;;;-0.50;99.30;;;;;;2079363;28;20500;-73
2021/03/06 02:12:36;;;;;;;14.40;10.40;;;-0.50;99.50;;;;;;2079826;28;20029;-73
2021/03/06 02:14:26;;;;;;;17.20;11.27;;;-0.60;99.90;;;;;;2080088;28;20358;-73
2021/03/06 02:15:52;;;;;;;16.58;10.98;;;-0.60;99.90;;;;;;2079928;28;20033;-74
2021/03/06 02:17:21;;;;;;;18.08;11.73;;;-0.60;99.90;;;;;;2079913;28;20105;-74
2021/03/06 02:18:29;;;;;;;15.95;10.60;;;-0.70;99.90;;;;;;2079150;28;20026;-73
2021/03/06 02:24:17;;;;;;;18.10;10.63;;;-0.70;99.90;;;;;;2079613;28;20444;-73
2021/03/06 02:25:57;;;;;;;16.13;11.20;;;-0.70;99.90;;;;;;2079969;28;20040;-74
2021/03/06 02:27:28;;;;;;;13.57;9.90;;;-0.70;99.90;;;;;;2079535;28;20079;-74
2021/03/06 02:28:55;;;;;;;13.77;9.93;;;-0.80;99.90;;;;;;2080040;28;20018;-74
2021/03/06 02:30:14;;;;;;;16.00;10.38;;;-0.80;99.90;;;;;;2080457;28;20017;-73
2021/03/06 02:31:20;;;;;;;15.90;10.43;;;-0.80;99.90;;;;;;2081370;28;20025;-73
2021/03/06 02:32:34;;;;;;;16.35;10.35;;;-0.80;99.90;;;;;;2080789;28;20393;-74
2021/03/06 02:33:40;;;;;;;14.35;9.98;;;-0.80;99.90;;;;;;2080984;28;20597;-74
2021/03/06 02:35:04;;;;;;;13.10;10.13;;;-0.80;99.90;;;;;;2081409;28;20022;-73
2021/03/06 02:36:15;;;;;;;14.57;10.32;;;-0.80;99.90;;;;;;2081065;28;20036;-74
2021/03/06 02:37:24;;;;;;;12.32;9.77;;;-0.80;99.90;;;;;;2081195;28;20021;-73
2021/03/06 02:38:34;;;;;;;16.08;9.77;;;-0.80;99.90;;;;;;2080877;28;20013;-74
2021/03/06 02:39:45;;;;;;;15.85;10.20;;;-0.80;99.90;;;;;;2081634;28;20030;-73
2021/03/06 02:40:49;;;;;;;13.32;9.45;;;-0.80;99.90;;;;;;2081538;28;20499;-73
2021/03/06 02:41:52;;;;;;;15.93;11.10;;;-0.80;99.90;;;;;;2080785;28;20029;-74
2021/03/06 02:43:01;;;;;;;15.82;9.90;;;-0.80;99.90;;;;;;2080799;28;20063;-74
2021/03/06 02:44:04;;;;;;;14.90;9.90;;;-0.80;99.90;;;;;;2081321;28;20026;-73
2021/03/06 02:45:12;;;;;;;14.85;9.25;;;-0.80;99.90;;;;;;2081096;28;20030;-73
2021/03/06 02:46:13;;;;;;;13.07;9.27;;;-0.80;99.90;;;;;;2081366;28;20164;-73
2021/03/06 02:47:17;;;;;;;12.02;8.85;;;-0.80;99.90;;;;;;2080891;28;20021;-74
2021/03/06 02:48:28;;;;;;;13.80;9.25;;;-0.80;99.90;;;;;;2081119;28;20648;-73
2021/03/06 02:49:40;;;;;;;14.20;9.27;;;-0.80;99.90;;;;;;2081436;28;20025;-73
2021/03/06 02:50:41;;;;;;;18.08;10.15;;;-0.80;99.90;;;;;;2081320;28;20025;-73
2021/03/06 02:51:49;;;;;;;11.88;8.93;;;-0.80;99.90;;;;;;2081335;28;20021;-74
2021/03/06 02:52:52;;;;;;;12.60;9.68;;;-0.80;99.90;;;;;;2081169;28;20029;-73
2021/03/06 02:53:55;;;;;;;12.57;9.98;;;-0.80;99.90;;;;;;2081211;28;20036;-74
2021/03/06 02:54:59;;;;;;;12.02;9.98;;;-0.80;99.90;;;;;;2081361;28;20056;-73
2021/03/06 02:56:08;;;;;;;11.77;9.50;;;-0.80;99.90;;;;;;2081519;28;20009;-73
2021/03/06 02:57:20;;;;;;;12.60;9.00;;;-0.80;99.90;;;;;;2081000;28;20079;-74
2021/03/06 02:58:39;;;;;;;15.75;9.40;;;-0.80;99.90;;;;;;2081263;28;20592;-74
2021/03/06 03:00:09;;;;;;;14.35;8.77;;;-0.80;99.90;;;;;;2081174;28;20018;-74
2021/03/06 03:01:19;;;;;;;;;;;-0.90;99.90;;;;;;2056681;28;20042;-73
2021/03/06 03:02:41;;;;;;;12.47;9.07;;;-1.00;99.90;;;;;;2057701;28;20329;-73
2021/03/06 03:04:23;;;;;;;13.25;10.07;;;-1.00;99.90;;;;;;2081805;28;20249;-73
2021/03/06 03:05:56;;;;;;;16.38;9.60;;;-1.00;99.90;;;;;;2081820;28;20028;-74
2021/03/06 03:07:10;;;;;;;13.27;9.07;;;-1.00;99.90;;;;;;2081689;28;20021;-73
2021/03/06 03:08:29;;;;;;;13.52;9.20;;;-1.00;99.90;;;;;;2081854;28;20024;-74
2021/03/06 03:09:34;;;;;;;12.93;10.00;;;-1.00;99.90;;;;;;2081863;28;20111;-74
2021/03/06 03:10:44;;;;;;;13.75;9.43;;;-1.00;99.90;;;;;;2081918;28;20034;-73
2021/03/06 03:11:53;;;;;;;10.30;8.77;;;-1.00;99.90;;;;;;2081926;28;20488;-73
2021/03/06 03:13:29;;;;;;;12.48;8.80;;;-1.00;99.90;;;;;;2082085;28;20057;-74
2021/03/06 03:14:41;;;;;;;14.80;9.38;;;-0.90;99.90;;;;;;2081865;28;20032;-74
2021/03/06 03:16:33;;;;;;;13.48;9.35;;;-1.00;99.90;;;;;;2081770;28;20020;-73
2021/03/06 03:17:40;;;;;;;12.82;8.90;;;-1.00;99.90;;;;;;2048107;29;20415;-73
2021/03/06 03:18:52;;;;;;;11.25;8.88;;;-1.00;99.90;;;;;;2049366;28;20031;-73
2021/03/06 03:20:18;;;;;;;12.75;9.68;;;-1.00;99.90;;;;;;2081724;28;20024;-73
2021/03/06 03:21:29;;;;;;;14.77;10.73;;;-1.00;99.90;;;;;;2081762;28;20411;-74
2021/03/06 03:22:53;;;;;;;11.98;9.27;;;-1.00;99.90;;;;;;2081875;28;20100;-73
2021/03/06 03:24:15;;;;;;;14.25;9.38;;;-1.00;99.90;;;;;;2081776;28;20021;-73
2021/03/06 03:25:30;;;;;;;12.27;9.43;;;-1.00;99.90;;;;;;2083072;28;20022;-74
2021/03/06 03:26:42;;;;;;;10.32;8.68;;;-1.00;99.90;;;;;;2081347;28;20091;-73
2021/03/06 03:27:44;;;;;;;11.35;9.15;;;-1.00;99.90;;;;;;2081337;28;20047;-73
2021/03/06 03:28:54;;;;;;;14.48;9.50;;;-1.00;99.80;;;;;;2073447;28;20457;-73
2021/03/06 03:30:02;;;;;;;12.45;9.18;;;-1.00;99.90;;;;;;2081563;28;20018;-74
2021/03/06 03:31:15;;;;;;;12.75;9.18;;;-1.00;99.90;;;;;;2081197;28;20025;-74
2021/03/06 03:32:24;;;;;;;12.10;8.80;;;-1.00;99.90;;;;;;2080636;28;20040;-74
2021/03/06 03:33:33;;;;;;;14.25;9.85;;;-1.00;99.90;;;;;;2080784;28;20056;-74
2021/03/06 03:34:54;;;;;;;13.05;9.90;;;-1.00;99.90;;;;;;2081070;28;20628;-74
2021/03/06 03:35:58;;;;;;;12.73;9.73;;;-1.00;99.90;;;;;;2081849;28;20495;-74
2021/03/06 03:37:17;;;;;;;12.75;9.73;;;-1.10;99.90;;;;;;2081014;28;20465;-74
2021/03/06 03:38:27;;;;;;;10.95;9.40;;;-1.00;99.90;;;;;;2081695;28;20108;-74
2021/03/06 03:39:34;;;;;;;14.25;9.50;;;-1.10;99.90;;;;;;2081623;28;20604;-74
2021/03/06 03:40:42;;;;;;;12.23;9.57;;;-1.10;99.90;;;;;;2081231;28;20022;-73
2021/03/06 03:41:47;;;;;;;15.45;10.73;;;-1.10;99.90;;;;;;2081576;28;20627;-74
2021/03/06 03:42:49;;;;;;;15.05;9.40;;;-1.10;99.90;;;;;;2081577;28;20075;-73
2021/03/06 03:43:52;;;;;;;14.90;9.50;;;-1.10;99.90;;;;;;2081674;28;20024;-74
2021/03/06 03:44:53;;;;;;;15.23;10.43;;;-1.10;99.90;;;;;;2081356;28;20485;-73
2021/03/06 03:46:05;;;;;;;12.13;10.15;;;-1.00;99.90;;;;;;2081691;28;20105;-74
2021/03/06 03:47:07;;;;;;;16.90;10.07;;;-1.00;99.90;;;;;;2080587;28;20484;-73
2021/03/06 03:48:12;;;;;;;12.95;9.93;;;-1.10;99.90;;;;;;2081164;28;20040;-74
2021/03/06 03:49:21;;;;;;;13.63;10.68;;;-1.10;99.90;;;;;;2080359;28;20121;-73
2021/03/06 03:50:22;;;;;;;14.25;10.63;;;-1.10;99.90;;;;;;2081200;28;20033;-74
2021/03/06 03:51:23;;;;;;;16.35;10.88;;;-1.10;99.90;;;;;;2081523;28;20112;-73
2021/03/06 03:52:24;;;;;;;15.23;10.75;;;-1.10;99.90;;;;;;2080179;28;20037;-74
2021/03/06 03:53:28;;;;;;;13.73;10.68;;;-1.10;99.90;;;;;;2080798;28;20474;-74
2021/03/06 03:54:29;;;;;;;12.02;10.27;;;-1.10;99.90;;;;;;2081501;28;20029;-73
2021/03/06 03:55:31;;;;;;;14.07;10.20;;;-1.10;99.90;;;;;;2081231;28;20026;-73
2021/03/06 03:56:32;;;;;;;14.27;10.93;;;-1.10;99.90;;;;;;2081507;28;20032;-73
2021/03/06 03:57:35;;;;;;;14.25;11.00;;;-1.10;99.90;;;;;;2081154;28;20018;-74
2021/03/06 03:58:44;;;;;;;16.38;11.77;;;-1.10;99.90;;;;;;2081113;28;20615;-74
2021/03/06 03:59:59;;;;;;;17.13;12.00;;;-1.10;99.90;;;;;;2081478;28;20072;-74
2021/03/06 04:01:07;;;;;;;14.70;11.32;;;-1.10;99.90;;;;;;2080840;28;20127;-74
2021/03/06 04:02:21;;;;;;;18.15;12.40;;;-1.10;99.90;;;;;;2080533;28;20053;-73
2021/03/06 04:03:30;;;;;;;14.73;11.45;;;-1.20;99.90;;;;;;2080993;28;20496;-74
2021/03/06 04:04:41;;;;;;;17.10;12.15;;;-1.10;99.90;;;;;;2080917;28;20494;-74
2021/03/06 04:05:53;;;;;;;16.98;11.93;;;-1.10;99.90;;;;;;2081076;28;20099;-74
2021/03/06 04:07:04;;;;;;;15.98;11.80;;;-1.20;99.90;;;;;;2080744;28;20064;-74
2021/03/06 04:08:18;;;;;;;17.65;12.15;;;-1.20;99.90;;;;;;2080630;28;20020;-74
2021/03/06 04:09:19;;;;;;;19.70;13.32;;;-1.20;99.90;;;;;;2080229;28;20034;-74
2021/03/06 04:10:24;;;;;;;14.60;11.63;;;-1.20;99.90;;;;;;2080245;28;20096;-73
2021/03/06 04:11:41;;;;;;;15.25;11.25;;;-1.20;99.90;;;;;;2080207;28;20060;-73
2021/03/06 04:12:46;;;;;;;17.08;11.90;;;-1.20;99.90;;;;;;2080795;28;20041;-74
2021/03/06 04:13:50;;;;;;;15.77;11.02;;;-1.20;99.90;;;;;;2080749;28;20028;-74
2021/03/06 04:14:57;;;;;;;15.50;12.25;;;-1.20;99.90;;;;;;2080742;28;20021;-73
2021/03/06 04:15:58;;;;;;;16.65;12.02;;;-1.20;99.90;;;;;;2080766;28;20025;-74
2021/03/06 04:17:11;;;;;;;17.50;11.90;;;-1.20;99.90;;;;;;2080451;28;20385;-73
2021/03/06 04:18:23;;;;;;;17.60;12.90;;;-1.20;99.90;;;;;;2080441;28;20366;-74
2021/03/06 04:19:27;;;;;;;18.50;12.80;;;-1.20;99.90;;;;;;2080828;28;20053;-73
2021/03/06 04:20:33;;;;;;;20.92;13.85;;;-1.20;99.90;;;;;;2080645;28;20026;-73
2021/03/06 04:21:40;;;;;;;17.77;11.57;;;-1.20;99.90;;;;;;2079630;28;20392;-73
2021/03/06 04:22:41;;;;;;;16.05;12.73;;;-1.20;99.90;;;;;;2079976;28;20527;-74
2021/03/06 04:23:47;;;;;;;16.13;12.43;;;-1.20;99.90;;;;;;2079768;28;20465;-73
2021/03/06 04:24:54;;;;;;;18.85;13.48;;;-1.20;99.90;;;;;;2080745;28;20385;-74
2021/03/06 04:26:04;;;;;;;23.25;14.30;;;-1.20;99.90;;;;;;2080623;28;20032;-73
2021/03/06 04:27:06;;;;;;;20.52;13.65;;;-1.20;99.90;;;;;;2079281;28;20033;-74
2021/03/06 04:28:13;;;;;;;17.77;13.20;;;-1.20;99.90;;;;;;2079890;28;20188;-74
2021/03/06 04:29:20;;;;;;;15.00;11.48;;;-1.20;99.90;;;;;;2079856;28;20577;-73
2021/03/06 04:30:32;;;;;;;18.40;12.48;;;-1.20;99.90;;;;;;2080172;28;20516;-73
2021/03/06 04:31:55;;;;;;;20.63;13.05;;;-1.20;99.90;;;;;;2080706;28;20026;-74
2021/03/06 04:33:04;;;;;;;19.67;12.80;;;-1.30;99.90;;;;;;2079971;28;20021;-74
2021/03/06 04:34:14;;;;;;;20.15;13.85;;;-1.30;99.90;;;;;;2080060;28;20018;-74
2021/03/06 04:35:20;;;;;;;18.33;13.90;;;-1.30;99.90;;;;;;2080424;28;20025;-73
2021/03/06 04:36:35;;;;;;;20.98;14.45;;;-1.30;99.90;;;;;;2080041;28;20636;-74
2021/03/06 04:37:42;;;;;;;20.90;14.63;;;-1.30;99.90;;;;;;2072931;28;20018;-74
2021/03/06 04:38:46;;;;;;;19.45;13.25;;;-1.30;99.90;;;;;;2079913;28;20021;-74
2021/03/06 04:39:52;;;;;;;19.10;12.93;;;-1.30;99.90;;;;;;2080324;28;20033;-74
2021/03/06 04:41:01;;;;;;;18.73;12.70;;;-1.30;99.90;;;;;;2078642;28;20023;-74
2021/03/06 04:42:08;;;;;;;20.27;13.45;;;-1.30;99.90;;;;;;2079632;28;20020;-73
2021/03/06 04:43:17;;;;;;;18.35;13.38;;;-1.30;99.90;;;;;;2080442;28;20033;-74
2021/03/06 04:44:31;;;;;;;20.77;13.77;;;-1.30;99.90;;;;;;2080636;28;20387;-74
2021/03/06 04:45:45;;;;;;;21.60;13.50;;;-1.30;99.90;;;;;;2080318;28;20045;-74
2021/03/06 04:46:54;;;;;;;20.08;14.13;;;-1.30;99.90;;;;;;2080157;28;20027;-74
2021/03/06 04:48:18;;;;;;;22.98;13.88;;;-1.30;99.90;;;;;;2080420;28;20481;-74
2021/03/06 04:49:35;;;;;;;19.55;14.35;;;-1.30;99.90;;;;;;2080226;28;20072;-74
2021/03/06 04:50:44;;;;;;;22.10;14.70;;;-1.30;99.90;;;;;;2080548;28;20477;-73
2021/03/06 04:51:49;;;;;;;22.25;16.00;;;-1.40;99.90;;;;;;2080450;28;20428;-73
2021/03/06 04:53:11;;;;;;;20.38;14.27;;;-1.40;99.90;;;;;;2079071;28;20035;-74
2021/03/06 04:54:17;;;;;;;18.33;12.48;;;-1.40;99.90;;;;;;2080066;28;20030;-73
2021/03/06 04:55:18;;;;;;;22.55;16.17;;;-1.40;99.90;;;;;;2080384;28;20033;-73
2021/03/06 04:56:26;;;;;;;26.67;16.73;;;-1.40;99.90;;;;;;2080393;28;20029;-74
2021/03/06 04:57:35;;;;;;;19.15;13.45;;;-1.40;99.90;;;;;;2079966;28;20101;-74
2021/03/06 04:58:47;;;;;;;24.20;15.52;;;-1.40;99.90;;;;;;2080393;28;20017;-74
2021/03/06 05:00:00;;;;;;;18.70;14.15;;;-1.40;99.90;;;;;;2079752;28;20448;-73
2021/03/06 05:05:25;;;;;;;19.63;13.32;;;-1.50;99.90;;;;;;2080690;28;20477;-73
2021/03/06 05:06:27;;;;;;;20.52;14.32;;;-1.50;99.90;;;;;;2079920;28;20029;-74
2021/03/06 05:11:31;;;;;;;;;;;;;;;;;;;;;
2021/03/06 05:12:39;;;;;;;21.17;13.85;;;-1.60;99.90;;;;;;2080148;28;20022;-74
2021/03/06 05:15:14;;;;;;;19.45;13.20;;;-1.50;99.90;;;;;;2080121;28;20163;-73
2021/03/06 05:16:25;;;;;;;21.77;13.35;;;-1.60;99.90;;;;;;2079967;28;20480;-74
2021/03/06 05:17:33;;;;;;;17.73;13.50;;;-1.50;99.90;;;;;;2079369;28;20610;-74
2021/03/06 05:18:34;;;;;;;22.10;13.02;;;-1.50;99.90;;;;;;2072228;28;20567;-74
2021/03/06 05:19:43;;;;;;;25.60;14.98;;;-1.50;99.90;;;;;;2079573;28;20072;-73
2021/03/06 05:21:29;;;;;;;22.33;14.20;;;-1.50;99.90;;;;;;2080481;28;20017;-73
2021/03/06 05:22:41;;;;;;;21.48;14.30;;;-1.50;99.90;;;;;;2069198;28;20671;-74
2021/03/06 05:23:48;;;;;;;17.75;12.98;;;-1.60;99.90;;;;;;2080257;28;20028;-74
2021/03/06 05:24:57;;;;;;;20.70;14.50;;;-1.60;99.90;;;;;;2079890;28;20528;-74
2021/03/06 05:26:12;;;;;;;18.08;13.40;;;-1.60;99.90;;;;;;2079898;28;20481;-74
2021/03/06 05:27:24;;;;;;;21.73;14.00;;;-1.60;99.90;;;;;;2079191;28;20602;-74
2021/03/06 05:28:36;;;;;;;19.17;13.10;;;-1.60;99.90;;;;;;2079578;28;20029;-74
2021/03/06 05:29:54;;;;;;;19.42;12.88;;;-1.60;99.90;;;;;;2080052;28;20022;-74
2021/03/06 05:31:13;;;;;;;19.92;13.48;;;-1.60;99.90;;;;;;2080122;28;20018;-74
2021/03/06 05:32:36;;;;;;;22.45;13.48;;;-1.60;99.90;;;;;;2080505;28;20038;-73
2021/03/06 05:33:58;;;;;;;18.25;12.80;;;-1.60;99.90;;;;;;2079529;28;20025;-72
2021/03/06 05:35:14;;;;;;;19.58;12.77;;;-1.60;99.90;;;;;;2079731;28;20030;-74
2021/03/06 05:36:37;;;;;;;20.70;13.32;;;-1.60;99.90;;;;;;2080264;28;20048;-74
2021/03/06 05:37:45;;;;;;;21.80;13.95;;;-1.60;99.90;;;;;;2079826;28;20036;-74
2021/03/06 05:38:57;;;;;;;18.60;13.43;;;-1.60;99.90;;;;;;2079336;28;20388;-73
2021/03/06 05:40:07;;;;;;;16.88;12.93;;;-1.60;99.90;;;;;;2079699;28;20029;-73
2021/03/06 05:41:46;;;;;;;18.80;13.88;;;-1.60;99.90;;;;;;2079943;28;20385;-74
2021/03/06 05:43:06;;;;;;;19.33;12.23;;;-1.60;99.90;;;;;;2079178;28;20423;-75
2021/03/06 05:44:13;;;;;;;;;;;-1.70;99.90;;;;;;2079802;28;20024;-73
2021/03/06 05:45:22;;;;;;;17.02;11.75;;;-1.70;99.90;;;;;;2079442;28;20281;-74
2021/03/06 05:46:31;;;;;;;17.45;12.05;;;-1.70;99.90;;;;;;2078818;28;20557;-73
2021/03/06 05:47:37;;;;;;;17.50;11.95;;;-1.70;99.90;;;;;;2071717;28;20041;-74
2021/03/06 05:48:48;;;;;;;19.70;12.73;;;-1.70;99.90;;;;;;2079637;28;20186;-73
2021/03/06 05:49:59;;;;;;;19.48;13.73;;;-1.70;99.90;;;;;;2078427;28;20172;-73
2021/03/06 05:51:16;;;;;;;20.98;13.57;;;-1.60;99.90;;;;;;2079719;28;20097;-73
2021/03/06 05:52:25;;;;;;;16.67;12.63;;;-1.70;99.90;;;;;;2079574;28;20080;-74
2021/03/06 05:53:44;;;;;;;19.20;12.47;;;-1.70;99.90;;;;;;2079552;28;20029;-75
2021/03/06 05:54:58;;;;;;;17.83;12.68;;;-1.70;99.90;;;;;;2079511;28;20367;-73
2021/03/06 05:56:04;;;;;;;19.92;12.82;;;-1.70;99.90;;;;;;2079206;28;20419;-74
2021/03/06 05:57:15;;;;;;;16.42;12.55;;;-1.70;99.90;;;;;;2079709;28;20029;-73
2021/03/06 05:58:38;;;;;;;19.48;13.63;;;-1.70;99.90;;;;;;2079867;28;20022;-75
2021/03/06 05:59:49;;;;;;;20.77;12.73;;;-1.70;99.90;;;;;;2080170;28;20392;-74
2021/03/06 06:00:58;;;;;;;18.25;12.27;;;-1.70;99.90;;;;;;2080148;28;20092;-73
2021/03/06 06:02:10;;;;;;;18.80;12.55;;;-1.70;99.90;;;;;;2079689;28;20406;-74
2021/03/06 06:03:26;;;;;;;19.80;12.38;;;-1.70;99.90;;;;;;2079787;28;20018;-73
2021/03/06 06:04:37;;;;;;;16.45;12.02;;;-1.70;99.90;;;;;;2080911;28;20052;-73
2021/03/06 06:06:05;;;;;;;19.48;12.48;;;-1.70;99.90;;;;;;2080509;28;20037;-73
2021/03/06 06:07:18;;;;;;;15.40;11.43;;;-1.70;99.90;;;;;;2080789;28;20013;-74
2021/03/06 06:08:35;;;;;;;16.90;11.38;;;-1.80;99.90;;;;;;2081590;28;20396;-74
2021/03/06 06:09:55;;;;;;;16.38;12.23;;;-1.70;99.90;;;;;;2081500;28;20051;-73
2021/03/06 06:11:03;;;;;;;16.60;11.07;;;-1.70;99.90;;;;;;2080642;28;20081;-73
2021/03/06 06:12:23;;;;;;;18.33;12.15;;;-1.70;99.90;;;;;;2080969;28;20021;-74
2021/03/06 06:13:53;;;;;;;16.13;11.40;;;-1.70;99.90;;;;;;2080469;28;20140;-74
2021/03/06 06:15:26;;;;;;;16.85;12.25;;;-1.70;99.90;;;;;;2070329;28;20451;-74